Terminal Aerodrome Forecast
Issued by NWS Denver/Boulder, CO

Home | Current Version | Previous Version | Text Only | Print | Product List | Glossary On
Versions: 1 2 3 4 5 6 7 8 9 10 11 12 13 14 15 16 17 18 19 20 21 22 23 24 25 26 27 28 29 30 31 32 33 34 35 36 37 38 39 40 41 42 43 44 45 46 47 48 49 50
394
FTUS45 KBOU 220157 AAC
TAFDEN
TAF AMD
KDEN 220157Z 2202/2306 24012KT P6SM SCT150 BKN220
     FM220600 24015G22KT P6SM SCT220
     FM221200 24012KT P6SM SCT220
     FM221700 28012KT P6SM SCT220
     FM222000 33012KT P6SM FEW120 SCT220
     FM230200 03012KT P6SM SCT100 BKN150=

USA.gov is the U.S. government's official web portal to all federal, state and local government web resources and services.